Etusivu
METAR-TAF:

METAR-TAF

Lentoasemat :

Niamey, Niger

Diori Hamanin kansainvälinen lentoasema

Leveyspiiri: 13-29N, Pituuspiiri: 002-10E, korkeus merenpinnasta: 223 m

Tämänhetkinen sää

Tämä raportti tehtiin 1 tunti ja 19 minuuttia sitten, kello 10.00 UTC
Tuuli 12 kn idästä/kaakosta
Lämpötila 32°C
Kosteus 9%
Ilmanpaine 1013 hPa
Näkyvyys: 2500 m
laajalle levinnyttä pölyä

METAR: DRRN 231000Z 12012KT 2500 DU NSC 32/M05 Q1013 NOSIG

Aika: 12:19 (11:19 UTC)

Sääennuste

Tämä raportti tehtiin 6 tuntia ja 19 minuuttia sitten, kello 05.00 UTC
Ennuste voimassa 23. päivästä klo 06 UTC - 24. päivään klo 12 UTC
Tuuli 8 kn idästä/koillisesta
Näkyvyys: 2000 m
laajalle levinnyttä pölyä
Ajoittain
23. päivästä klo 08 UTC - 23. päivään klo 12 UTC
Tuuli 18 kn idästä/kaakosta
Näkyvyys: 0800 m
pölymyrsky

TAF: DRRN 230500Z 2306/2412 06008KT 2000 DU NSC TEMPO 2308/2312 12018KT 0800 BLDU

Säähavainnot ja -ennusteet yli 4000 lentoasemalta (METAR- ja TAF-raportit).

Käytössä olevat sääasemat on merkitty karttaan keltaisilla ja punaisilla pisteillä.

Aseta hiiri pisteen päälle nähdäksesi sääaseman nimen.

Klikkaa sitten nähdäksesi säähavainnot ja -ennusteet.

Kartan vaihtaminen: klikkaa mustalla rastilla varustettuja vihreitä pisteitä, niin voit zoomata sisään; viivalla varustettua vihreää pistettä, niin voit zoomata ulos tai vihreitä nuolia, niin pääset viereisille kartoille.


METAR-TAF: